createdAt,value
2019-04-23T08:45:29.905Z,27.45
2019-04-23T08:50:44.080Z,25.02
2019-04-23T08:53:31.276Z,23.80
2019-04-23T08:58:31.664Z,28.50
2019-04-23T09:01:05.657Z,29.37
2019-04-23T09:08:38.954Z,32.50
2019-04-23T09:11:30.098Z,23.90
2019-04-23T09:16:22.149Z,24.95
2019-04-23T09:19:02.823Z,27.67
2019-04-23T09:21:30.963Z,30.32
2019-04-23T09:23:59.046Z,29.72
2019-04-23T09:26:33.117Z,23.98
2019-04-23T09:29:17.302Z,23.05
2019-04-23T09:32:07.741Z,21.10
2019-04-23T09:34:18.569Z,25.97
2019-04-23T09:39:49.949Z,29.85
2019-04-23T09:42:49.390Z,24.90
2019-04-23T09:45:28.098Z,25.88
2019-04-23T09:48:06.719Z,22.58
2019-04-23T09:50:38.259Z,30.00
2019-04-23T09:55:37.433Z,25.72
2019-04-23T09:58:11.639Z,27.82
2019-04-23T10:01:02.010Z,26.68
2019-04-23T10:03:12.413Z,31.52
2019-04-23T10:05:39.953Z,25.77
2019-04-23T10:08:15.261Z,31.73
2019-04-23T10:10:38.406Z,26.05
2019-04-23T10:13:11.526Z,25.90
2019-04-23T10:15:47.696Z,28.20
2019-04-23T10:18:18.316Z,24.57
2019-04-23T10:20:50.074Z,25.55
2019-04-23T10:23:23.198Z,23.73
2019-04-23T10:25:56.270Z,24.23
2019-04-23T10:28:33.803Z,26.73
2019-04-23T10:31:07.143Z,23.38
2019-04-23T10:33:39.944Z,24.00
2019-04-23T10:36:15.792Z,24.50
2019-04-23T10:38:51.299Z,30.02
2019-04-23T10:41:20.109Z,26.82
2019-04-23T10:43:54.971Z,30.02
2019-04-23T10:46:49.418Z,23.30
2019-04-23T10:54:40.900Z,25.60
2019-04-23T10:59:48.981Z,22.75
2019-04-23T11:04:57.810Z,25.45
2019-04-23T11:10:07.231Z,25.40
2019-04-23T11:13:07.827Z,24.90
2019-04-23T11:15:36.295Z,24.57
2019-04-23T11:22:54.901Z,24.15
2019-04-23T11:28:13.626Z,27.17
2019-04-23T11:33:34.124Z,20.50
2019-04-23T11:38:13.740Z,25.17
2019-04-23T11:41:20.741Z,20.85
2019-04-23T11:43:37.783Z,23.40
2019-04-23T11:46:32.323Z,24.52
2019-04-23T11:49:01.830Z,25.68
2019-04-23T11:54:07.303Z,23.35
2019-04-23T11:56:51.477Z,22.22
2019-04-23T11:59:13.462Z,25.37
2019-04-23T12:01:49.907Z,22.55
2019-04-23T12:09:40.145Z,25.27
2019-04-23T12:12:23.509Z,25.55
2019-04-23T12:22:29.802Z,26.07
2019-04-23T12:27:31.466Z,23.30
2019-04-23T12:30:32.438Z,29.65
2019-04-23T12:35:19.278Z,22.67
2019-04-23T12:37:45.017Z,23.07
2019-04-23T12:40:25.139Z,26.35
2019-04-23T12:43:06.990Z,25.50
2019-04-23T12:48:16.215Z,28.02
2019-04-23T12:50:48.785Z,25.62
2019-04-23T13:00:54.511Z,28.05
2019-04-23T13:03:29.907Z,27.05
2019-04-23T13:05:59.325Z,25.35
2019-04-23T13:11:15.333Z,27.05
2019-04-23T13:13:45.899Z,27.10
2019-04-23T13:16:28.067Z,24.40
2019-04-23T13:18:49.591Z,27.67
2019-04-23T13:21:46.734Z,22.10
2019-04-23T13:24:18.751Z,22.73
2019-04-23T13:26:57.355Z,28.12
2019-04-23T13:29:43.233Z,25.20
2019-04-23T13:31:58.236Z,28.60
2019-04-23T13:34:42.831Z,22.62
2019-04-23T13:37:12.031Z,21.80
2019-04-23T13:39:39.726Z,24.90
2019-04-23T13:42:25.152Z,23.22
2019-04-23T13:44:48.396Z,25.77
2019-04-23T13:47:36.768Z,25.57
2019-04-23T13:49:57.206Z,21.20
2019-04-23T13:53:03.051Z,23.52
2019-04-23T13:58:00.120Z,27.10
2019-04-23T14:00:09.025Z,28.42
2019-04-23T14:02:43.900Z,29.72
2019-04-23T14:05:24.045Z,26.37
2019-04-23T14:07:56.535Z,27.02
2019-04-23T14:10:39.726Z,33.40
2019-04-23T14:13:23.667Z,34.15
2019-04-23T14:15:55.488Z,29.18
2019-04-23T14:18:36.123Z,26.87
2019-04-23T14:20:42.066Z,27.17
2019-04-23T14:26:05.266Z,28.92
2019-04-23T14:28:28.468Z,23.62
2019-04-23T14:33:38.313Z,26.60
2019-04-23T14:36:19.392Z,28.92
2019-04-23T14:38:41.677Z,32.38
2019-04-23T14:41:21.743Z,26.75
2019-04-23T14:43:57.936Z,29.57
2019-04-23T14:48:59.798Z,35.35
2019-04-23T14:51:46.716Z,33.73
2019-04-23T14:54:09.409Z,35.88
2019-04-23T14:56:39.085Z,38.13
2019-04-23T14:59:07.126Z,33.40
2019-04-23T15:01:42.810Z,29.05
2019-04-23T15:04:19.275Z,32.05
2019-04-23T15:12:11.865Z,33.63
2019-04-23T15:14:46.153Z,34.80
2019-04-23T15:17:13.175Z,34.10
2019-04-23T15:20:04.819Z,29.20
2019-04-23T15:22:32.986Z,38.83
2019-04-23T15:25:19.354Z,37.08
2019-04-23T15:30:04.176Z,33.63
2019-04-23T15:32:56.652Z,33.08
2019-04-23T15:35:29.515Z,29.95
2019-04-23T15:38:30.650Z,39.67
2019-04-23T15:40:28.421Z,39.27
2019-04-23T15:43:05.915Z,33.83
2019-04-23T15:45:41.602Z,39.88
2019-04-23T15:48:11.611Z,39.53
2019-04-23T15:50:43.628Z,32.88
2019-04-23T15:53:14.388Z,33.85
2019-04-23T15:55:55.446Z,33.70
2019-04-23T15:58:33.300Z,29.77
2019-04-23T16:01:21.407Z,31.97
2019-04-23T16:03:24.244Z,42.08
2019-04-23T16:05:55.332Z,30.65
2019-04-23T16:11:39.480Z,38.33
2019-04-23T16:14:17.054Z,38.88
2019-04-23T16:19:24.506Z,43.65
2019-04-23T16:22:08.467Z,38.92
2019-04-23T16:24:26.619Z,44.85
2019-04-23T16:27:11.163Z,34.73
2019-04-23T16:29:54.088Z,36.50
2019-04-23T16:34:54.150Z,32.00
2019-04-23T16:37:27.204Z,39.55
2019-04-23T16:40:10.378Z,35.58
2019-04-23T16:42:38.232Z,37.42
2019-04-23T16:45:14.850Z,33.83
2019-04-23T16:47:49.007Z,29.85
2019-04-23T16:50:19.429Z,37.60
2019-04-23T16:53:04.922Z,35.45
2019-04-23T16:55:29.064Z,34.80
2019-04-23T16:58:15.611Z,39.10
2019-04-23T17:00:43.817Z,36.25
2019-04-23T17:03:23.039Z,33.20
2019-04-23T17:05:52.917Z,37.55
2019-04-23T17:11:13.036Z,31.82
2019-04-23T17:13:24.180Z,31.85
2019-04-23T17:16:16.752Z,34.45
2019-04-23T17:18:31.939Z,36.88
2019-04-23T17:21:01.986Z,30.40
2019-04-23T17:24:02.947Z,35.45
2019-04-23T17:28:44.498Z,33.05
2019-04-23T17:31:32.351Z,36.63
2019-04-23T17:33:58.912Z,39.95
2019-04-23T17:39:07.820Z,34.10
2019-04-23T17:41:49.989Z,37.85
2019-04-23T17:46:54.069Z,37.25
2019-04-23T17:49:30.044Z,40.12
2019-04-23T17:52:05.109Z,41.25
2019-04-23T17:54:34.420Z,37.25
2019-04-23T18:00:04.886Z,36.60
2019-04-23T18:05:06.256Z,36.88
2019-04-23T18:07:43.811Z,32.98
2019-04-23T18:12:43.522Z,37.40
2019-04-23T18:15:09.569Z,38.25
2019-04-23T18:17:49.522Z,35.55
2019-04-23T18:20:37.963Z,34.65
2019-04-23T18:23:10.091Z,32.23
2019-04-23T18:25:58.052Z,32.50
2019-04-23T18:28:33.543Z,30.97
2019-04-23T18:31:10.626Z,32.70
2019-04-23T18:36:12.943Z,43.83
2019-04-23T18:38:59.793Z,40.03
2019-04-23T18:41:24.083Z,41.40
2019-04-23T18:44:05.797Z,34.58
2019-04-23T18:46:37.301Z,36.28
2019-04-23T18:49:13.520Z,37.33
2019-04-23T18:51:41.741Z,37.10
2019-04-23T18:54:14.823Z,34.70
2019-04-23T18:57:03.364Z,33.75
2019-04-23T18:59:30.479Z,39.73
2019-04-23T19:02:09.570Z,32.13
2019-04-23T19:07:42.370Z,34.03
2019-04-23T19:13:03.843Z,29.00
2019-04-23T19:15:37.288Z,30.45
2019-04-23T19:20:51.759Z,28.70
2019-04-23T19:23:16.041Z,25.72
2019-04-23T19:25:51.715Z,25.90
2019-04-23T19:28:34.602Z,29.52
2019-04-23T19:31:07.354Z,27.00
2019-04-23T19:33:47.904Z,22.70
2019-04-23T19:36:17.260Z,25.57
2019-04-23T19:38:54.270Z,26.37
2019-04-23T19:41:25.662Z,22.22
2019-04-23T19:43:59.469Z,22.90
2019-04-23T19:46:41.579Z,28.57
2019-04-23T20:04:41.165Z,23.35
2019-04-23T20:09:50.776Z,24.35
2019-04-23T20:12:25.928Z,25.62
2019-04-23T20:14:52.071Z,38.20
2019-04-23T20:17:39.859Z,19.42
2019-04-23T20:19:54.898Z,23.07
2019-04-23T20:22:41.744Z,20.43
2019-04-23T20:25:34.744Z,21.60
2019-04-23T20:31:58.247Z,21.82
2019-04-23T20:35:59.911Z,22.87
2019-04-23T20:38:33.328Z,24.52
2019-04-23T20:41:03.962Z,25.70
2019-04-23T20:43:46.857Z,30.65
2019-04-23T20:46:10.949Z,20.70
2019-04-23T20:48:48.446Z,19.65
2019-04-23T20:51:14.311Z,18.82
2019-04-23T20:53:57.334Z,17.77
2019-04-23T20:56:26.507Z,17.05
2019-04-23T20:58:59.781Z,16.90
2019-04-23T21:04:00.036Z,21.65
2019-04-23T21:06:47.049Z,14.93
2019-04-23T21:09:27.834Z,17.32
2019-04-23T21:11:58.068Z,18.07
2019-04-23T21:16:56.650Z,14.35
2019-04-23T21:19:34.120Z,18.35
2019-04-23T21:22:09.823Z,16.15
2019-04-23T21:24:44.946Z,16.93
2019-04-23T21:27:21.844Z,18.48
2019-04-23T21:29:57.020Z,16.25
2019-04-23T21:32:29.728Z,33.80
2019-04-23T21:35:05.273Z,21.93
2019-04-23T21:37:49.456Z,16.97
2019-04-23T21:43:10.488Z,13.35
2019-04-23T21:45:53.053Z,17.45
2019-04-23T21:48:28.046Z,14.63
2019-04-23T21:50:58.354Z,15.53
2019-04-23T21:53:24.288Z,22.50
2019-04-23T21:58:36.796Z,18.23
2019-04-23T22:01:19.786Z,19.48
2019-04-23T22:06:33.127Z,20.55
2019-04-23T22:09:10.397Z,18.17
2019-04-23T22:11:48.292Z,19.67
2019-04-23T22:14:13.204Z,18.00
2019-04-23T22:16:50.073Z,17.92
2019-04-23T22:19:19.734Z,20.65
2019-04-23T22:26:44.994Z,25.17
2019-04-23T22:29:26.221Z,18.85
2019-04-23T22:31:53.735Z,17.25
2019-04-23T22:34:42.939Z,16.20
2019-04-23T22:37:19.391Z,20.45
2019-04-23T22:39:46.965Z,19.85
2019-04-23T22:42:26.846Z,26.37
2019-04-23T22:47:28.445Z,20.97
2019-04-23T22:50:10.880Z,28.15
2019-04-23T22:55:07.715Z,14.40
2019-04-23T22:57:56.445Z,17.27
2019-04-23T23:00:14.379Z,19.17
2019-04-23T23:05:56.388Z,25.00
2019-04-23T23:08:17.974Z,21.75
2019-04-23T23:10:53.341Z,22.48
2019-04-23T23:16:02.053Z,20.75
2019-04-23T23:21:07.920Z,24.40
2019-04-23T23:23:40.835Z,21.00
2019-04-23T23:28:44.697Z,20.45
2019-04-23T23:31:22.510Z,24.23
2019-04-23T23:33:55.805Z,20.00
2019-04-23T23:41:35.606Z,18.12
2019-04-23T23:46:46.220Z,17.62
2019-04-23T23:57:13.889Z,22.32
2019-04-23T23:59:41.924Z,20.77
